Time;durP1;ratioP1;P1;durP2;ratioP2;P2;SDS_P1;SDS_P2;PMS_P1;PMS_P2;Temp;Humidity;BMP_temperature;BMP_pressure;BME280_temperature;BME280_humidity;BME280_pressure;Samples;Min_cycle;Max_cycle;Signal;HPM_P1;HPM_P2
2023/12/26 00:01:34;;;;;;;0.10;0.10;;;10.20;99.90;;;;;;4971959;28;20043;-71
2023/12/26 00:04:00;;;;;;;0.00;0.00;;;10.20;99.90;;;;;;4970305;28;20039;-71
2023/12/26 00:06:26;;;;;;;0.10;0.10;;;10.20;99.90;;;;;;4971425;28;20050;-71
2023/12/26 00:08:51;;;;;;;0.10;0.10;;;10.20;99.90;;;;;;4970379;28;20129;-71
2023/12/26 00:11:17;;;;;;;0.10;0.10;;;10.20;99.90;;;;;;4968921;28;20187;-71
2023/12/26 00:13:42;;;;;;;0.00;0.00;;;10.20;99.90;;;;;;4958599;28;20078;-70
2023/12/26 00:16:08;;;;;;;0.10;0.10;;;10.20;99.90;;;;;;4971775;28;20055;-70
2023/12/26 00:18:34;;;;;;;0.10;0.10;;;10.20;99.90;;;;;;4964608;28;20081;-71
2023/12/26 00:20:59;;;;;;;0.10;0.10;;;10.20;99.90;;;;;;4966393;28;20142;-71
2023/12/26 00:23:26;;;;;;;0.10;0.10;;;10.10;99.90;;;;;;4970406;28;20075;-71
2023/12/26 00:25:52;;;;;;;0.28;0.28;;;10.10;99.90;;;;;;4966847;28;20378;-70
2023/12/26 00:28:19;;;;;;;0.10;0.10;;;10.10;99.90;;;;;;4958787;28;20590;-70
2023/12/26 00:30:45;;;;;;;0.10;0.10;;;10.10;99.90;;;;;;4968130;28;20085;-70
2023/12/26 00:33:11;;;;;;;0.10;0.10;;;10.10;99.90;;;;;;4967097;28;20051;-71
2023/12/26 00:35:37;;;;;;;0.10;0.10;;;10.00;99.90;;;;;;4963654;28;20042;-70
2023/12/26 00:38:03;;;;;;;0.00;0.00;;;10.00;99.90;;;;;;4969966;28;20058;-70
2023/12/26 00:40:29;;;;;;;0.00;0.00;;;10.00;99.90;;;;;;4962416;28;20053;-71
2023/12/26 00:42:54;;;;;;;0.10;0.10;;;10.00;99.90;;;;;;4970584;28;20070;-70
2023/12/26 00:45:22;;;;;;;0.00;0.00;;;10.00;99.90;;;;;;4968025;28;20066;-70
2023/12/26 00:47:48;;;;;;;0.17;0.17;;;10.00;99.90;;;;;;4964465;28;20051;-70
2023/12/26 00:50:16;;;;;;;0.10;0.10;;;9.90;99.90;;;;;;4969229;28;20134;-71
2023/12/26 00:52:42;;;;;;;0.30;0.30;;;9.90;99.90;;;;;;4960839;28;20130;-71
2023/12/26 00:55:08;;;;;;;8.20;0.98;;;9.90;99.90;;;;;;4962991;28;20054;-71
2023/12/26 00:57:34;;;;;;;1.00;1.00;;;9.90;99.90;;;;;;4964833;28;20065;-70
2023/12/26 01:00:00;;;;;;;0.00;0.00;;;9.80;99.90;;;;;;4967861;28;20051;-70
2023/12/26 01:02:26;;;;;;;15.25;1.55;;;9.80;99.90;;;;;;4970176;28;20053;-70
2023/12/26 01:04:52;;;;;;;0.03;0.03;;;9.90;99.90;;;;;;4970187;28;20046;-70
2023/12/26 01:07:18;;;;;;;0.10;0.10;;;9.80;99.90;;;;;;4971639;28;20050;-70
2023/12/26 01:09:43;;;;;;;0.00;0.00;;;9.80;99.90;;;;;;4963599;28;20134;-70
2023/12/26 01:12:09;;;;;;;0.03;0.03;;;9.80;99.90;;;;;;4964555;28;20055;-70
2023/12/26 01:14:35;;;;;;;0.20;0.20;;;9.80;99.90;;;;;;4970203;28;20159;-70
2023/12/26 01:17:01;;;;;;;6.03;2.45;;;9.80;99.90;;;;;;4963406;28;20047;-70
2023/12/26 01:19:27;;;;;;;0.10;0.10;;;9.80;99.90;;;;;;4965308;28;20043;-70
2023/12/26 01:21:53;;;;;;;0.80;0.80;;;9.80;99.90;;;;;;4959280;28;20046;-70
2023/12/26 01:24:18;;;;;;;0.17;0.17;;;9.80;99.90;;;;;;4968986;28;20108;-70
2023/12/26 01:26:44;;;;;;;0.10;0.10;;;9.80;99.90;;;;;;4965187;28;20054;-70
2023/12/26 01:29:10;;;;;;;0.00;0.00;;;9.80;99.90;;;;;;4965982;28;20085;-70
2023/12/26 01:31:36;;;;;;;0.40;0.38;;;9.80;99.90;;;;;;4972140;28;20062;-70
2023/12/26 01:34:05;;;;;;;0.10;0.10;;;9.70;99.90;;;;;;4966134;28;20501;-70
2023/12/26 01:36:32;;;;;;;0.10;0.10;;;9.70;99.90;;;;;;4959817;28;20051;-70
2023/12/26 01:38:58;;;;;;;0.05;0.05;;;9.70;99.90;;;;;;4968757;28;20093;-70
2023/12/26 01:41:24;;;;;;;0.10;0.10;;;9.70;99.90;;;;;;4964058;28;20101;-70
2023/12/26 01:43:49;;;;;;;0.00;0.00;;;9.70;99.90;;;;;;4963020;28;20034;-70
2023/12/26 01:46:16;;;;;;;1.02;0.93;;;9.70;99.90;;;;;;4973629;28;20046;-70
2023/12/26 01:48:44;;;;;;;0.20;0.20;;;9.80;99.90;;;;;;4961376;28;20118;-70
2023/12/26 01:51:13;;;;;;;0.10;0.10;;;9.70;99.90;;;;;;4960319;28;20058;-70
2023/12/26 01:53:39;;;;;;;0.10;0.10;;;9.70;99.90;;;;;;4969021;28;20034;-70
2023/12/26 01:56:13;;;;;;;0.10;0.10;;;9.70;99.90;;;;;;4968948;28;20051;-69
2023/12/26 01:58:39;;;;;;;0.20;0.20;;;9.70;99.90;;;;;;4965523;28;20046;-70
2023/12/26 02:01:06;;;;;;;3.00;2.40;;;9.70;99.90;;;;;;4959936;28;20061;-69
2023/12/26 02:03:32;;;;;;;4.55;1.95;;;9.70;99.90;;;;;;4968156;28;20124;-70
2023/12/26 02:06:00;;;;;;;0.65;0.65;;;9.70;99.90;;;;;;4973429;28;20038;-69
2023/12/26 02:08:26;;;;;;;0.43;0.43;;;9.60;99.90;;;;;;4967189;28;20493;-70
2023/12/26 02:10:51;;;;;;;0.00;0.00;;;9.60;99.90;;;;;;4956172;28;20046;-69
2023/12/26 02:13:17;;;;;;;1.50;1.40;;;9.60;99.90;;;;;;4966265;28;20066;-69
2023/12/26 02:15:44;;;;;;;0.30;0.30;;;9.60;99.90;;;;;;4958842;28;20050;-69
2023/12/26 02:18:11;;;;;;;0.30;0.30;;;9.60;99.90;;;;;;4969972;28;20042;-69
2023/12/26 02:20:37;;;;;;;0.10;0.10;;;9.60;99.90;;;;;;4967794;28;20054;-69
2023/12/26 02:23:02;;;;;;;0.10;0.10;;;9.50;99.90;;;;;;4954623;28;20047;-69
2023/12/26 02:25:28;;;;;;;0.00;0.00;;;9.50;99.90;;;;;;4963833;28;20510;-69
2023/12/26 02:27:54;;;;;;;0.15;0.15;;;9.50;99.90;;;;;;4957605;28;20526;-69
2023/12/26 02:30:22;;;;;;;0.10;0.10;;;9.50;99.90;;;;;;4964586;28;20035;-69
2023/12/26 02:32:49;;;;;;;0.45;0.45;;;9.50;99.90;;;;;;4963693;28;20066;-69
2023/12/26 02:35:16;;;;;;;0.10;0.10;;;9.50;99.90;;;;;;4966467;28;20051;-69
2023/12/26 02:37:42;;;;;;;0.10;0.10;;;9.50;99.90;;;;;;4963835;28;20158;-69
2023/12/26 02:40:09;;;;;;;0.10;0.10;;;9.40;99.90;;;;;;4967489;28;20038;-69
2023/12/26 02:42:35;;;;;;;0.52;0.52;;;9.50;99.90;;;;;;4967604;28;20057;-69
2023/12/26 02:45:01;;;;;;;0.10;0.10;;;9.40;99.90;;;;;;4963349;28;20043;-69
2023/12/26 02:47:26;;;;;;;1.38;0.90;;;9.40;99.90;;;;;;4960345;28;20098;-69
2023/12/26 02:49:52;;;;;;;0.10;0.10;;;9.30;99.90;;;;;;4982678;28;20051;-69
2023/12/26 02:52:18;;;;;;;0.82;0.32;;;9.30;99.90;;;;;;4965219;28;20041;-69
2023/12/26 02:54:44;;;;;;;0.10;0.10;;;9.30;99.90;;;;;;4956258;28;20055;-69
2023/12/26 02:57:09;;;;;;;0.03;0.03;;;9.30;99.90;;;;;;4966364;28;20051;-69
2023/12/26 02:59:35;;;;;;;0.10;0.10;;;9.30;99.90;;;;;;4958669;28;20663;-69
2023/12/26 03:02:00;;;;;;;0.10;0.10;;;9.20;99.90;;;;;;4964543;28;20039;-69
2023/12/26 03:04:26;;;;;;;0.10;0.10;;;9.10;99.90;;;;;;4962553;28;20093;-69
2023/12/26 03:06:53;;;;;;;0.10;0.10;;;9.10;99.90;;;;;;4961538;28;20034;-69
2023/12/26 03:09:18;;;;;;;0.15;0.15;;;9.10;99.90;;;;;;4968645;28;20047;-69
2023/12/26 03:11:44;;;;;;;1.67;1.58;;;9.00;99.90;;;;;;4958164;28;20059;-69
2023/12/26 03:14:11;;;;;;;0.10;0.10;;;9.00;99.90;;;;;;4965406;28;20412;-69
2023/12/26 03:16:37;;;;;;;0.10;0.10;;;9.00;99.90;;;;;;4962653;28;20487;-69
2023/12/26 03:19:03;;;;;;;0.55;0.55;;;8.90;99.90;;;;;;4959868;28;20054;-69
2023/12/26 03:21:28;;;;;;;0.73;0.73;;;8.80;99.90;;;;;;4965858;28;20051;-69
2023/12/26 03:23:54;;;;;;;1.30;1.20;;;8.80;99.90;;;;;;4961392;28;20043;-69
2023/12/26 03:26:20;;;;;;;0.70;0.55;;;8.80;99.90;;;;;;4966618;28;20069;-69
2023/12/26 03:28:45;;;;;;;0.10;0.10;;;8.80;99.90;;;;;;4964262;28;20090;-69
2023/12/26 03:31:11;;;;;;;0.08;0.08;;;8.70;99.90;;;;;;4968667;28;20494;-69
2023/12/26 03:33:36;;;;;;;0.57;0.57;;;8.70;99.90;;;;;;4966315;28;20066;-69
2023/12/26 03:36:03;;;;;;;0.10;0.10;;;8.70;99.90;;;;;;4965208;28;20038;-69
2023/12/26 03:38:28;;;;;;;0.10;0.10;;;8.70;99.90;;;;;;4970575;28;20065;-69
2023/12/26 03:40:55;;;;;;;0.10;0.10;;;8.60;99.90;;;;;;4968773;28;20038;-69
2023/12/26 03:43:20;;;;;;;0.10;0.10;;;8.60;99.90;;;;;;4960989;28;20134;-69
2023/12/26 03:45:46;;;;;;;0.10;0.10;;;8.70;99.90;;;;;;4961646;28;20134;-68
2023/12/26 03:48:12;;;;;;;0.10;0.10;;;8.70;99.90;;;;;;4984310;28;20150;-68
2023/12/26 03:50:39;;;;;;;0.10;0.10;;;8.60;99.90;;;;;;4963488;28;20478;-69
2023/12/26 03:53:04;;;;;;;0.00;0.00;;;8.70;99.90;;;;;;4960951;28;20422;-69
2023/12/26 03:55:30;;;;;;;0.88;0.88;;;8.70;99.90;;;;;;4962987;28;20036;-69
2023/12/26 03:57:56;;;;;;;0.10;0.10;;;8.70;99.90;;;;;;4962887;28;20058;-69
2023/12/26 04:00:21;;;;;;;0.55;0.55;;;8.60;99.90;;;;;;4966562;28;20066;-69
2023/12/26 04:02:47;;;;;;;0.10;0.10;;;8.60;99.90;;;;;;4967374;28;20106;-68
2023/12/26 04:05:13;;;;;;;0.00;0.00;;;8.60;99.90;;;;;;4963995;28;20050;-69
2023/12/26 04:07:39;;;;;;;0.05;0.05;;;8.60;99.90;;;;;;4971267;28;20078;-69
2023/12/26 04:10:05;;;;;;;0.10;0.10;;;8.60;99.90;;;;;;4958593;28;20069;-68
2023/12/26 04:12:32;;;;;;;0.30;0.30;;;8.60;99.90;;;;;;4961084;28;20497;-69
2023/12/26 04:14:58;;;;;;;6.55;2.40;;;8.60;99.90;;;;;;4967965;28;20422;-69
2023/12/26 04:17:24;;;;;;;0.05;0.05;;;8.60;99.90;;;;;;4964934;28;20125;-68
2023/12/26 04:19:50;;;;;;;0.63;0.63;;;8.60;99.90;;;;;;4966245;28;20471;-69
2023/12/26 04:22:15;;;;;;;0.52;0.52;;;8.60;99.90;;;;;;4971482;28;20089;-68
2023/12/26 04:24:41;;;;;;;0.10;0.10;;;8.60;99.90;;;;;;4961621;28;20040;-69
2023/12/26 04:27:07;;;;;;;0.10;0.10;;;8.60;99.90;;;;;;4968517;28;20050;-68
2023/12/26 04:29:32;;;;;;;0.10;0.10;;;8.60;99.90;;;;;;4957859;28;20043;-69
2023/12/26 04:31:58;;;;;;;8.40;0.90;;;8.60;99.90;;;;;;4966883;28;20429;-69
2023/12/26 04:34:24;;;;;;;2.35;1.65;;;8.60;99.90;;;;;;4970298;28;20058;-69
2023/12/26 04:36:49;;;;;;;1.38;1.27;;;8.60;99.90;;;;;;4967898;28;20047;-68
2023/12/26 04:39:16;;;;;;;0.10;0.10;;;8.60;99.90;;;;;;4976064;28;20047;-68
2023/12/26 04:41:42;;;;;;;0.10;0.10;;;8.60;99.90;;;;;;4971737;28;20046;-68
2023/12/26 04:44:07;;;;;;;2.38;1.35;;;8.70;99.90;;;;;;4967392;28;20050;-68
2023/12/26 04:46:33;;;;;;;0.00;0.00;;;8.60;99.90;;;;;;4971305;28;20046;-68
2023/12/26 04:48:59;;;;;;;0.10;0.10;;;8.70;99.90;;;;;;4962530;28;20039;-68
2023/12/26 04:51:28;;;;;;;0.10;0.10;;;8.70;99.90;;;;;;4968003;28;20057;-68
2023/12/26 04:53:54;;;;;;;0.10;0.10;;;8.60;99.90;;;;;;4966946;28;20085;-68
2023/12/26 04:56:20;;;;;;;0.05;0.05;;;8.70;99.90;;;;;;4971247;28;20085;-68
2023/12/26 04:58:47;;;;;;;0.85;0.85;;;8.70;99.90;;;;;;4960041;28;20035;-68
2023/12/26 05:01:14;;;;;;;0.10;0.10;;;8.70;99.90;;;;;;4955982;28;20526;-69
2023/12/26 05:03:40;;;;;;;3.10;1.70;;;8.80;99.90;;;;;;4974092;28;20082;-68
2023/12/26 05:06:05;;;;;;;0.10;0.10;;;8.80;99.90;;;;;;4966584;28;20559;-68
2023/12/26 05:08:31;;;;;;;0.82;0.38;;;8.80;99.90;;;;;;4959002;28;20118;-68
2023/12/26 05:10:57;;;;;;;0.10;0.10;;;8.80;99.90;;;;;;4968492;28;20589;-68
2023/12/26 05:13:23;;;;;;;0.00;0.00;;;8.90;99.90;;;;;;4964682;28;20047;-68
2023/12/26 05:15:49;;;;;;;0.90;0.68;;;8.90;99.90;;;;;;4964342;28;20050;-68
2023/12/26 05:18:14;;;;;;;0.10;0.10;;;9.00;99.90;;;;;;4975231;28;20050;-68
2023/12/26 05:20:40;;;;;;;0.85;0.85;;;8.90;99.90;;;;;;4961817;28;20045;-69
2023/12/26 05:23:06;;;;;;;3.72;2.03;;;9.00;99.90;;;;;;4978375;28;20066;-69
2023/12/26 05:25:32;;;;;;;0.75;0.75;;;9.00;99.90;;;;;;4953323;28;20035;-68
2023/12/26 05:27:58;;;;;;;0.10;0.10;;;9.00;99.90;;;;;;4962289;28;20094;-68
2023/12/26 05:30:24;;;;;;;0.20;0.20;;;9.10;99.90;;;;;;4964841;28;20043;-68
2023/12/26 05:32:49;;;;;;;2.67;1.27;;;9.00;99.90;;;;;;4965174;28;20065;-68
2023/12/26 05:35:15;;;;;;;0.10;0.10;;;9.00;99.90;;;;;;4966644;28;20047;-68
2023/12/26 05:37:41;;;;;;;0.10;0.10;;;9.00;99.90;;;;;;4966844;28;20058;-68
2023/12/26 05:40:07;;;;;;;0.50;0.50;;;9.00;99.90;;;;;;4969101;28;20375;-68
2023/12/26 05:42:33;;;;;;;0.10;0.10;;;8.90;99.90;;;;;;4968629;28;20394;-68
2023/12/26 05:44:58;;;;;;;0.10;0.10;;;9.00;99.90;;;;;;4966420;28;20051;-68
2023/12/26 05:47:24;;;;;;;0.10;0.10;;;9.00;99.90;;;;;;4961837;28;20038;-68
2023/12/26 05:49:50;;;;;;;0.10;0.10;;;9.00;99.90;;;;;;4969274;28;20046;-68
2023/12/26 05:52:15;;;;;;;0.20;0.20;;;9.00;99.90;;;;;;4961996;28;20043;-68
2023/12/26 05:54:41;;;;;;;0.52;0.52;;;8.90;99.90;;;;;;4966899;28;20045;-68
2023/12/26 05:57:07;;;;;;;0.00;0.00;;;8.90;99.90;;;;;;4969888;28;20417;-68
2023/12/26 05:59:32;;;;;;;2.20;1.23;;;8.80;99.90;;;;;;4955263;28;20416;-68
2023/12/26 06:01:58;;;;;;;0.10;0.10;;;8.70;99.90;;;;;;4963753;28;20542;-68
2023/12/26 06:04:23;;;;;;;1.23;1.02;;;8.70;99.90;;;;;;4962166;28;20050;-68
2023/12/26 06:06:49;;;;;;;0.17;0.17;;;8.70;99.90;;;;;;4966861;28;20066;-68
2023/12/26 06:09:16;;;;;;;0.10;0.10;;;8.60;99.90;;;;;;4961863;28;20126;-68
2023/12/26 06:11:42;;;;;;;0.55;0.55;;;8.60;99.90;;;;;;4968924;28;20051;-68
2023/12/26 06:14:08;;;;;;;1.55;1.45;;;8.60;99.90;;;;;;4969830;28;20050;-68
2023/12/26 06:16:34;;;;;;;1.02;0.85;;;8.60;99.90;;;;;;4962393;28;20179;-69
2023/12/26 06:19:00;;;;;;;1.23;1.23;;;8.60;99.90;;;;;;4961318;28;20055;-68
2023/12/26 06:21:25;;;;;;;0.10;0.10;;;8.60;99.90;;;;;;4967733;28;20464;-68
2023/12/26 06:23:51;;;;;;;0.10;0.10;;;8.50;99.90;;;;;;4961461;28;20137;-68
2023/12/26 06:26:17;;;;;;;0.10;0.10;;;8.50;99.90;;;;;;4978073;28;20057;-68
2023/12/26 06:28:43;;;;;;;0.08;0.08;;;8.60;99.90;;;;;;4962594;28;20125;-68
2023/12/26 06:31:15;;;;;;;0.10;0.10;;;8.50;99.90;;;;;;4969522;28;20038;-68
2023/12/26 06:33:41;;;;;;;0.10;0.10;;;8.60;99.90;;;;;;4976111;28;20553;-68
2023/12/26 06:36:07;;;;;;;0.30;0.30;;;8.60;99.90;;;;;;4963599;28;20062;-68
2023/12/26 06:38:33;;;;;;;0.32;0.32;;;8.60;99.90;;;;;;4971064;28;20078;-68
2023/12/26 06:40:58;;;;;;;0.55;0.55;;;8.70;99.90;;;;;;4968319;28;20517;-68
2023/12/26 06:43:24;;;;;;;0.40;0.40;;;8.70;99.90;;;;;;4966194;28;20158;-68
2023/12/26 06:45:50;;;;;;;0.10;0.10;;;8.70;99.90;;;;;;4961907;28;20569;-68
2023/12/26 06:48:15;;;;;;;1.23;0.93;;;8.70;99.90;;;;;;4967533;28;20039;-68
2023/12/26 06:50:41;;;;;;;0.32;0.32;;;8.70;99.90;;;;;;4963210;28;20042;-68
2023/12/26 06:53:06;;;;;;;0.10;0.10;;;8.70;99.90;;;;;;4961038;28;20105;-68
2023/12/26 06:55:32;;;;;;;2.72;0.95;;;8.70;99.90;;;;;;4962432;28;20047;-68
2023/12/26 06:57:58;;;;;;;0.10;0.10;;;8.70;99.90;;;;;;4954108;28;20580;-68
2023/12/26 07:00:24;;;;;;;0.10;0.10;;;8.70;99.90;;;;;;4966650;28;20139;-68
2023/12/26 07:02:49;;;;;;;0.00;0.00;;;8.70;99.90;;;;;;4968728;28;20073;-68
2023/12/26 07:05:15;;;;;;;25.27;1.10;;;8.60;99.90;;;;;;4967194;28;20402;-68
2023/12/26 07:07:41;;;;;;;0.10;0.10;;;8.60;99.90;;;;;;4960251;28;20535;-68
2023/12/26 07:10:07;;;;;;;0.10;0.10;;;8.60;99.90;;;;;;4961008;28;20129;-68
2023/12/26 07:12:33;;;;;;;0.10;0.10;;;8.70;99.90;;;;;;4972028;28;20039;-68
2023/12/26 07:14:58;;;;;;;0.00;0.00;;;8.60;99.90;;;;;;4965687;28;20494;-68
2023/12/26 07:17:24;;;;;;;0.75;0.75;;;8.60;99.90;;;;;;4967498;28;20058;-68
2023/12/26 07:19:50;;;;;;;0.10;0.10;;;8.60;99.90;;;;;;4963752;28;20078;-68
2023/12/26 07:22:15;;;;;;;0.13;0.13;;;8.60;99.90;;;;;;4969875;28;20045;-68
2023/12/26 07:24:41;;;;;;;0.40;0.40;;;8.50;99.90;;;;;;4961250;28;20070;-68
2023/12/26 07:27:08;;;;;;;0.10;0.10;;;8.50;99.90;;;;;;4967000;28;20449;-68
2023/12/26 07:29:33;;;;;;;1.98;0.90;;;8.40;99.90;;;;;;4973016;28;20517;-68
2023/12/26 07:31:59;;;;;;;0.17;0.17;;;8.40;99.90;;;;;;4964409;28;20098;-68
2023/12/26 07:34:24;;;;;;;2.47;1.75;;;8.50;99.90;;;;;;4964627;28;20442;-68
2023/12/26 07:36:50;;;;;;;0.10;0.10;;;8.40;99.90;;;;;;4960097;28;20110;-68
2023/12/26 07:39:16;;;;;;;0.10;0.10;;;8.40;99.90;;;;;;4969115;28;20202;-68
2023/12/26 07:41:41;;;;;;;0.68;0.68;;;8.40;99.90;;;;;;4962259;28;20058;-68
2023/12/26 07:44:07;;;;;;;0.22;0.22;;;8.40;99.90;;;;;;4974495;28;20098;-68
2023/12/26 07:46:33;;;;;;;0.70;0.70;;;8.40;99.90;;;;;;4979258;28;20070;-68
2023/12/26 07:48:58;;;;;;;0.25;0.25;;;8.40;99.90;;;;;;4969962;28;20038;-68
2023/12/26 07:51:24;;;;;;;0.10;0.10;;;8.40;99.90;;;;;;4968673;28;20062;-68
2023/12/26 07:53:51;;;;;;;0.10;0.10;;;8.40;99.90;;;;;;4965056;28;20050;-68
2023/12/26 07:56:18;;;;;;;2.08;0.95;;;8.50;99.90;;;;;;4970380;28;20225;-68
2023/12/26 07:58:45;;;;;;;0.63;0.63;;;8.40;99.90;;;;;;4965549;28;20133;-68
2023/12/26 08:01:12;;;;;;;0.10;0.10;;;8.50;99.90;;;;;;4967421;28;20046;-68
2023/12/26 08:03:37;;;;;;;1.02;1.02;;;8.50;99.90;;;;;;4964324;28;20394;-68
2023/12/26 08:06:03;;;;;;;0.10;0.10;;;8.50;99.90;;;;;;4971653;28;20030;-68
2023/12/26 08:08:29;;;;;;;0.40;0.40;;;8.50;99.90;;;;;;4969019;28;20042;-68
2023/12/26 08:10:54;;;;;;;0.10;0.10;;;8.50;99.90;;;;;;4962654;28;20542;-68
2023/12/26 08:13:20;;;;;;;0.08;0.08;;;8.60;99.90;;;;;;4964109;28;20035;-68
2023/12/26 08:15:46;;;;;;;0.10;0.10;;;8.60;99.90;;;;;;4966985;28;20113;-68
2023/12/26 08:18:11;;;;;;;0.20;0.20;;;8.60;99.90;;;;;;4963552;28;20042;-68
2023/12/26 08:20:37;;;;;;;0.10;0.10;;;8.70;99.90;;;;;;4963791;28;20042;-68
2023/12/26 08:23:03;;;;;;;0.10;0.10;;;8.70;99.90;;;;;;4975041;28;20502;-68
2023/12/26 08:25:29;;;;;;;0.10;0.10;;;8.70;99.90;;;;;;4961683;28;20042;-68
2023/12/26 08:27:55;;;;;;;0.10;0.10;;;8.70;99.90;;;;;;4971249;28;20057;-68
2023/12/26 08:30:20;;;;;;;0.17;0.17;;;8.80;99.90;;;;;;4967509;28;20513;-68
2023/12/26 08:32:46;;;;;;;0.10;0.10;;;8.70;99.90;;;;;;4970689;28;20050;-68
2023/12/26 08:35:12;;;;;;;0.90;0.85;;;8.80;99.90;;;;;;4969282;28;20046;-68
2023/12/26 08:37:38;;;;;;;0.10;0.10;;;8.80;99.90;;;;;;4960799;28;20134;-67
2023/12/26 08:40:04;;;;;;;11.60;0.90;;;8.80;99.90;;;;;;4965661;28;20047;-67
2023/12/26 08:42:29;;;;;;;4.60;1.48;;;8.80;99.90;;;;;;4964695;28;20050;-67
2023/12/26 08:44:55;;;;;;;0.13;0.13;;;8.80;99.90;;;;;;4966869;28;20546;-68
2023/12/26 08:47:21;;;;;;;0.75;0.75;;;8.70;99.90;;;;;;4973970;28;20130;-68
2023/12/26 08:49:46;;;;;;;0.10;0.10;;;8.70;99.90;;;;;;4968154;28;20050;-67
2023/12/26 08:52:13;;;;;;;0.10;0.10;;;8.70;99.90;;;;;;4960856;28;20071;-67
2023/12/26 08:54:41;;;;;;;0.10;0.10;;;8.70;99.90;;;;;;4968029;28;21322;-68
2023/12/26 08:57:07;;;;;;;0.68;0.68;;;8.70;99.90;;;;;;4958323;28;20098;-67
2023/12/26 08:59:32;;;;;;;0.10;0.10;;;8.70;99.90;;;;;;4962549;28;20046;-67
2023/12/26 09:01:58;;;;;;;6.35;2.75;;;8.70;99.90;;;;;;4967341;28;20058;-67
2023/12/26 09:04:26;;;;;;;2.25;2.05;;;8.80;99.90;;;;;;4966896;28;20041;-67
2023/12/26 09:06:53;;;;;;;0.45;0.45;;;8.80;99.90;;;;;;4957431;28;20081;-68
2023/12/26 09:09:18;;;;;;;0.10;0.10;;;8.80;99.90;;;;;;4963078;28;20086;-68
2023/12/26 09:11:44;;;;;;;0.10;0.10;;;8.80;99.90;;;;;;4970981;28;20057;-68
2023/12/26 09:14:09;;;;;;;0.13;0.13;;;8.80;99.90;;;;;;4958637;28;20042;-68
2023/12/26 09:16:35;;;;;;;2.63;1.20;;;8.80;99.90;;;;;;4956506;28;20042;-68
2023/12/26 09:19:01;;;;;;;0.20;0.20;;;8.80;99.90;;;;;;4968970;28;20038;-68
2023/12/26 09:21:26;;;;;;;0.65;0.65;;;8.90;99.90;;;;;;4970705;28;20417;-68
2023/12/26 09:23:52;;;;;;;0.10;0.10;;;8.90;99.90;;;;;;4964799;28;20039;-68
2023/12/26 09:26:24;;;;;;;0.08;0.08;;;8.90;99.90;;;;;;4968639;28;20038;-68
2023/12/26 09:28:50;;;;;;;0.75;0.70;;;8.90;99.90;;;;;;4967333;28;20046;-68
2023/12/26 09:31:16;;;;;;;0.10;0.10;;;9.00;99.90;;;;;;4984952;28;20138;-68
2023/12/26 09:33:42;;;;;;;0.15;0.15;;;9.00;99.90;;;;;;4974996;28;20035;-68
2023/12/26 09:36:07;;;;;;;5.28;1.38;;;9.10;99.90;;;;;;4969879;28;20042;-68
2023/12/26 09:38:33;;;;;;;0.75;0.65;;;9.10;99.90;;;;;;4993796;28;20832;-67
2023/12/26 09:40:59;;;;;;;0.10;0.10;;;9.20;99.90;;;;;;4967581;28;20053;-68
2023/12/26 09:43:25;;;;;;;0.20;0.20;;;9.20;99.90;;;;;;4963976;28;20069;-68
2023/12/26 09:45:51;;;;;;;1.05;1.02;;;9.20;99.90;;;;;;4965183;28;20410;-68
2023/12/26 09:48:17;;;;;;;0.20;0.20;;;9.30;99.90;;;;;;4964832;28;20073;-68
2023/12/26 09:50:43;;;;;;;0.10;0.10;;;9.30;99.90;;;;;;4968470;28;20030;-68
2023/12/26 09:53:09;;;;;;;0.10;0.10;;;9.20;99.90;;;;;;4957719;28;20054;-68
2023/12/26 09:55:35;;;;;;;0.40;0.40;;;9.20;99.90;;;;;;4963448;28;20054;-68
2023/12/26 09:58:01;;;;;;;0.03;0.03;;;9.20;99.90;;;;;;4971547;28;20043;-68
2023/12/26 10:00:29;;;;;;;0.65;0.65;;;9.30;99.90;;;;;;4959450;28;20047;-68
2023/12/26 10:02:55;;;;;;;0.85;0.85;;;9.20;99.90;;;;;;4970737;28;20047;-68
2023/12/26 10:05:25;;;;;;;1.45;0.68;;;9.20;99.90;;;;;;4964196;28;20035;-68
2023/12/26 10:07:50;;;;;;;0.10;0.10;;;9.20;99.90;;;;;;4962847;28;20435;-68
2023/12/26 10:10:22;;;;;;;0.10;0.10;;;9.20;99.90;;;;;;4964092;28;20046;-68
2023/12/26 10:12:48;;;;;;;0.25;0.25;;;9.20;99.90;;;;;;4962473;28;20047;-68
2023/12/26 10:15:14;;;;;;;0.10;0.10;;;9.20;99.90;;;;;;4974090;28;20077;-68
2023/12/26 10:17:44;;;;;;;5.95;2.20;;;9.30;99.90;;;;;;4956375;28;20133;-68
2023/12/26 10:20:13;;;;;;;0.00;0.00;;;9.20;99.90;;;;;;4964710;28;20081;-68
2023/12/26 10:22:42;;;;;;;0.00;0.00;;;9.30;99.90;;;;;;4965622;28;20043;-68
2023/12/26 10:25:09;;;;;;;1.75;1.35;;;9.30;99.90;;;;;;4962765;28;20182;-68
2023/12/26 10:27:35;;;;;;;0.30;0.30;;;9.30;99.90;;;;;;4959688;28;20043;-68
2023/12/26 10:30:00;;;;;;;1.88;1.23;;;9.30;99.90;;;;;;4958952;28;20031;-68
2023/12/26 10:32:26;;;;;;;0.10;0.10;;;9.30;99.90;;;;;;4957699;28;20051;-68
2023/12/26 10:34:55;;;;;;;0.38;0.38;;;9.30;99.90;;;;;;4963024;28;20409;-68
2023/12/26 10:37:25;;;;;;;0.00;0.00;;;9.30;99.90;;;;;;4966129;28;20418;-68
2023/12/26 10:39:51;;;;;;;0.10;0.10;;;9.40;99.90;;;;;;4965341;28;20055;-68
2023/12/26 10:42:18;;;;;;;0.10;0.10;;;9.40;99.90;;;;;;4971013;28;20038;-67
2023/12/26 10:45:05;;;;;;;0.10;0.10;;;9.40;99.90;;;;;;4971631;28;20042;-68
2023/12/26 10:47:31;;;;;;;1.45;1.27;;;9.40;99.90;;;;;;4964134;28;20047;-68
2023/12/26 10:50:06;;;;;;;0.10;0.10;;;9.40;99.90;;;;;;4976874;28;20106;-68
2023/12/26 10:52:33;;;;;;;0.10;0.10;;;9.40;99.90;;;;;;4975563;28;20043;-68
2023/12/26 10:55:03;;;;;;;0.10;0.10;;;9.40;99.90;;;;;;4963046;28;20480;-67
2023/12/26 10:57:31;;;;;;;0.10;0.10;;;9.40;99.90;;;;;;4969303;28;20051;-68
2023/12/26 13:51:43;;;;;;;0.10;0.10;;;9.20;99.90;;;;;;4968892;28;20441;-67
2023/12/26 13:54:11;;;;;;;0.08;0.08;;;9.20;99.90;;;;;;4970762;28;20414;-67
2023/12/26 13:56:37;;;;;;;0.10;0.10;;;9.20;99.90;;;;;;4966921;28;20046;-68
2023/12/26 13:59:02;;;;;;;0.10;0.10;;;9.20;99.90;;;;;;4968020;28;20162;-68
2023/12/26 14:01:28;;;;;;;1.45;1.30;;;9.20;99.90;;;;;;4968605;28;20031;-68
2023/12/26 14:03:55;;;;;;;0.10;0.10;;;9.20;99.90;;;;;;4969253;28;20039;-67
2023/12/26 14:06:21;;;;;;;0.40;0.40;;;9.10;99.90;;;;;;4958288;28;20647;-67
2023/12/26 14:08:49;;;;;;;0.10;0.10;;;9.10;99.90;;;;;;4980363;28;20104;-67
2023/12/26 14:11:18;;;;;;;0.10;0.10;;;9.00;99.90;;;;;;4958791;28;20113;-67
2023/12/26 14:13:44;;;;;;;0.20;0.20;;;9.00;99.90;;;;;;4970760;28;20054;-67
2023/12/26 14:16:10;;;;;;;0.10;0.10;;;9.00;99.90;;;;;;4969661;28;21863;-67
2023/12/26 14:18:36;;;;;;;0.10;0.10;;;8.90;99.90;;;;;;4969292;28;20046;-67
2023/12/26 14:21:02;;;;;;;0.10;0.10;;;8.80;99.90;;;;;;4964962;28;20509;-67
2023/12/26 14:23:28;;;;;;;0.10;0.10;;;8.80;99.90;;;;;;4960510;28;20051;-67
2023/12/26 14:25:55;;;;;;;0.10;0.10;;;8.80;99.90;;;;;;4966629;28;20089;-67
2023/12/26 14:28:20;;;;;;;0.10;0.10;;;8.70;99.90;;;;;;4970544;28;20067;-67
2023/12/26 14:30:46;;;;;;;0.10;0.10;;;8.70;99.90;;;;;;4963202;28;20084;-67
2023/12/26 14:33:19;;;;;;;0.55;0.55;;;8.60;99.90;;;;;;4969403;28;20043;-67
2023/12/26 14:35:49;;;;;;;0.10;0.10;;;8.60;99.90;;;;;;4968721;28;20047;-67
2023/12/26 14:38:15;;;;;;;0.80;0.80;;;8.60;99.90;;;;;;4966373;28;20109;-67
2023/12/26 14:40:45;;;;;;;1.98;1.65;;;8.60;99.90;;;;;;4962686;28;20153;-67
2023/12/26 14:43:10;;;;;;;3.53;1.83;;;8.60;99.90;;;;;;4981689;28;20054;-67
2023/12/26 14:45:36;;;;;;;10.93;1.85;;;8.60;99.90;;;;;;4962018;28;20390;-67
2023/12/26 14:48:03;;;;;;;0.00;0.00;;;8.50;99.90;;;;;;4965799;28;20050;-67
2023/12/26 14:50:30;;;;;;;0.10;0.10;;;8.50;99.90;;;;;;4967958;28;20043;-67
2023/12/26 14:53:33;;;;;;;0.10;0.10;;;8.40;99.90;;;;;;4971939;28;20094;-67
2023/12/26 14:56:36;;;;;;;0.10;0.10;;;8.40;99.90;;;;;;4966656;28;20059;-67
2023/12/26 14:59:39;;;;;;;0.10;0.10;;;8.30;99.90;;;;;;4961760;28;20046;-67
2023/12/26 15:02:05;;;;;;;0.10;0.10;;;8.30;99.90;;;;;;4961186;28;20111;-67
2023/12/26 15:04:32;;;;;;;0.00;0.00;;;8.20;99.90;;;;;;4965992;28;20066;-67
2023/12/26 15:06:58;;;;;;;0.10;0.10;;;8.10;99.90;;;;;;4968383;28;20838;-67
2023/12/26 15:09:24;;;;;;;0.10;0.10;;;8.10;99.90;;;;;;4961277;28;20043;-67
2023/12/26 15:11:50;;;;;;;0.10;0.10;;;8.00;99.90;;;;;;4964318;28;20082;-67
2023/12/26 15:14:17;;;;;;;0.55;0.55;;;8.00;99.90;;;;;;4960034;28;20077;-67
2023/12/26 15:16:42;;;;;;;0.10;0.10;;;7.90;99.90;;;;;;4965544;28;20462;-67
2023/12/26 15:19:08;;;;;;;0.15;0.15;;;7.90;99.90;;;;;;4956796;28;20097;-67
2023/12/26 15:21:43;;;;;;;0.00;0.00;;;7.90;99.90;;;;;;4968944;28;20660;-67
2023/12/26 15:24:10;;;;;;;2.70;0.60;;;7.90;99.90;;;;;;4963666;28;20050;-68
2023/12/26 15:26:36;;;;;;;0.10;0.10;;;7.80;99.90;;;;;;4960385;28;20050;-67
2023/12/26 15:29:01;;;;;;;0.10;0.10;;;7.80;99.90;;;;;;4967830;28;20039;-67
2023/12/26 15:31:27;;;;;;;0.10;0.10;;;7.80;99.90;;;;;;4970906;28;20490;-67
2023/12/26 15:33:53;;;;;;;0.10;0.10;;;7.80;99.90;;;;;;4963161;28;20043;-67
2023/12/26 15:36:26;;;;;;;0.30;0.30;;;7.80;99.90;;;;;;4961096;28;20361;-67
2023/12/26 15:38:54;;;;;;;0.10;0.10;;;7.90;99.90;;;;;;4964836;28;20581;-66
2023/12/26 15:41:21;;;;;;;0.10;0.10;;;7.90;99.90;;;;;;4963983;28;20054;-66
2023/12/26 15:43:47;;;;;;;12.95;1.55;;;7.90;99.90;;;;;;4967838;28;20062;-67